Airfield :
LOGIN :

Register | Disclaimer

   EN    FR    IT 

 










Legend :    VFR   Marginal VFR   IFR   Intensive IFR   Very Intensive IFR
Visi :
Ceiling :
>= 8 km
>= 3000ft
5 to 8 km
1000 to 3000 ft
1500m to 5 km
500 to 1000 ft
800 to 1500m
200 to 500 ft
< 800m
< 200 ft
Symbols :   Thunderstorms  Fog  Heavy snow  Heavy precipitations  Wind > 20 kt
SIGMETs :     Misc.  Thunderstorms  Icing  Turbulence  Mountain Waves  Volcanic Ashes







- Airport Elevation : 257 ft
- IATA code : MAN
- Download approach charts


EGCC - Manchester

CURRENT METAR :
  • 171120Z AUTO 18009KT 130V230 9999 NCD 11/04 Q1010 NOSIG

EXPIRED METARs :
  • 171050Z AUTO 18008KT 130V220 9999 NCD 11/04 Q1010 NOSIG
  • 171020Z AUTO 18008KT 140V220 9999 NCD 10/03 Q1009 NOSIG
  • 170950Z AUTO 17008KT 130V210 9999 NCD 10/04 Q1009 NOSIG
  • 170920Z AUTO 17009G19KT 120V220 9999 NCD 10/04 Q1009 NOSIG
  • 170850Z AUTO 17009G19KT 130V210 9999 NCD 10/04 Q1009 NOSIG
  • 170820Z AUTO 16008KT 070V240 9999 NCD 09/04 Q1009 NOSIG

TAF TAF EGCC
Valid from the 17 at 06:00 until the 18 at 12:00 UTC


170459Z 1706/1812 17009KT 9999 FEW015
PROB30
TEMPO 1706/1708 BKN012
PROB30
TEMPO 1710/1714 8000 -RA BKN014
PROB30
TEMPO 1806/1812 7000 SHRA
ATIS : +44 161 499 2324
No reported NOTAMs for that airfield.



MET'MAP, your aeronautical weather chart ! - Copyright ORBIFLY December 2007 - Disclaimer

ORBIFLY MET'MAP TEAM :

Programming & Development : Alexandra Zaïnal
Concept & Development : Baudouin d'Aumeries
Co-Development & Prog : Marc-Olivier Méhu
Technical & hardware support : Manuel Goepfert

Contact : metmap@orbifly.com




SOURCES & CREDITS :

   NOAA